sensor_id;sensor_type;location;lat;lon;timestamp;pressure;altitude;pressure_sealevel;temperature;humidity
11676;BME280;5894;42.768;23.404;2023-03-22T00:02:11;95298.25;;;11.07;100.00
11676;BME280;5894;42.768;23.404;2023-03-22T00:04:38;95297.59;;;11.01;100.00
11676;BME280;5894;42.768;23.404;2023-03-22T00:07:06;95294.50;;;11.08;100.00
11676;BME280;5894;42.768;23.404;2023-03-22T00:09:33;95276.34;;;10.97;100.00
11676;BME280;5894;42.768;23.404;2023-03-22T00:12:00;95287.22;;;10.96;100.00
11676;BME280;5894;42.768;23.404;2023-03-22T00:14:27;95292.66;;;10.99;100.00
11676;BME280;5894;42.768;23.404;2023-03-22T00:16:54;95236.16;;;10.66;100.00
11676;BME280;5894;42.768;23.404;2023-03-22T00:19:21;95290.31;;;10.98;100.00
11676;BME280;5894;42.768;23.404;2023-03-22T00:21:48;95294.97;;;11.01;100.00
11676;BME280;5894;42.768;23.404;2023-03-22T00:24:17;95289.38;;;11.02;100.00
11676;BME280;5894;42.768;23.404;2023-03-22T00:26:45;95291.25;;;11.02;100.00
11676;BME280;5894;42.768;23.404;2023-03-22T00:29:13;95284.09;;;11.02;100.00
11676;BME280;5894;42.768;23.404;2023-03-22T00:31:40;95271.06;;;10.89;100.00
11676;BME280;5894;42.768;23.404;2023-03-22T00:34:07;95265.81;;;10.89;100.00
11676;BME280;5894;42.768;23.404;2023-03-22T00:36:34;95250.28;;;10.87;100.00
11676;BME280;5894;42.768;23.404;2023-03-22T00:39:02;95276.19;;;11.02;100.00
11676;BME280;5894;42.768;23.404;2023-03-22T00:41:30;95236.75;;;10.80;100.00
11676;BME280;5894;42.768;23.404;2023-03-22T00:43:57;95264.41;;;11.00;100.00
11676;BME280;5894;42.768;23.404;2023-03-22T00:46:24;95270.13;;;11.02;100.00
11676;BME280;5894;42.768;23.404;2023-03-22T00:48:51;95270.44;;;11.00;100.00
11676;BME280;5894;42.768;23.404;2023-03-22T00:51:18;95268.13;;;10.99;100.00
11676;BME280;5894;42.768;23.404;2023-03-22T00:53:45;95254.00;;;10.86;100.00
11676;BME280;5894;42.768;23.404;2023-03-22T00:56:14;95250.59;;;10.77;100.00
11676;BME280;5894;42.768;23.404;2023-03-22T00:58:53;95260.50;;;10.80;100.00
11676;BME280;5894;42.768;23.404;2023-03-22T01:01:19;95272.59;;;10.81;100.00
11676;BME280;5894;42.768;23.404;2023-03-22T01:03:46;95256.00;;;10.72;100.00
11676;BME280;5894;42.768;23.404;2023-03-22T01:06:15;95262.03;;;10.64;100.00
11676;BME280;5894;42.768;23.404;2023-03-22T01:08:42;95258.94;;;10.62;100.00
11676;BME280;5894;42.768;23.404;2023-03-22T01:11:09;95258.47;;;10.60;100.00
11676;BME280;5894;42.768;23.404;2023-03-22T01:13:37;95256.16;;;10.58;100.00
11676;BME280;5894;42.768;23.404;2023-03-22T01:16:08;95258.16;;;10.61;100.00
11676;BME280;5894;42.768;23.404;2023-03-22T01:18:35;95251.31;;;10.60;100.00
11676;BME280;5894;42.768;23.404;2023-03-22T01:21:03;95256.59;;;10.60;100.00
11676;BME280;5894;42.768;23.404;2023-03-22T01:23:30;95242.63;;;10.51;100.00
11676;BME280;5894;42.768;23.404;2023-03-22T01:25:57;95239.53;;;10.49;100.00
11676;BME280;5894;42.768;23.404;2023-03-22T01:28:24;95227.41;;;10.31;100.00
11676;BME280;5894;42.768;23.404;2023-03-22T01:30:51;95246.94;;;10.39;100.00
11676;BME280;5894;42.768;23.404;2023-03-22T01:33:19;95244.47;;;10.34;100.00
11676;BME280;5894;42.768;23.404;2023-03-22T01:35:46;95230.16;;;10.17;100.00
11676;BME280;5894;42.768;23.404;2023-03-22T01:38:13;95233.72;;;10.21;100.00
11676;BME280;5894;42.768;23.404;2023-03-22T01:40:49;95242.13;;;10.23;100.00
11676;BME280;5894;42.768;23.404;2023-03-22T01:43:17;95240.81;;;10.12;100.00
11676;BME280;5894;42.768;23.404;2023-03-22T01:45:46;95233.03;;;10.07;100.00
11676;BME280;5894;42.768;23.404;2023-03-22T01:48:19;95237.22;;;10.08;100.00
11676;BME280;5894;42.768;23.404;2023-03-22T01:50:52;95221.50;;;9.86;100.00
11676;BME280;5894;42.768;23.404;2023-03-22T01:53:25;95238.94;;;10.04;100.00
11676;BME280;5894;42.768;23.404;2023-03-22T01:55:54;95246.66;;;10.01;100.00
11676;BME280;5894;42.768;23.404;2023-03-22T01:58:28;95234.72;;;9.94;100.00
11676;BME280;5894;42.768;23.404;2023-03-22T02:00:59;95169.75;;;9.42;100.00
11676;BME280;5894;42.768;23.404;2023-03-22T02:03:51;95245.22;;;9.86;100.00
11676;BME280;5894;42.768;23.404;2023-03-22T02:06:22;95236.53;;;9.85;100.00
11676;BME280;5894;42.768;23.404;2023-03-22T02:08:57;95195.16;;;9.46;100.00
11676;BME280;5894;42.768;23.404;2023-03-22T02:11:28;95235.28;;;9.83;100.00
11676;BME280;5894;42.768;23.404;2023-03-22T02:14:26;95222.69;;;9.71;100.00
11676;BME280;5894;42.768;23.404;2023-03-22T02:17:33;95244.38;;;9.77;100.00
11676;BME280;5894;42.768;23.404;2023-03-22T02:23:26;95232.56;;;9.66;100.00
11676;BME280;5894;42.768;23.404;2023-03-22T02:26:24;95240.63;;;9.69;100.00
11676;BME280;5894;42.768;23.404;2023-03-22T02:29:03;95222.13;;;9.52;100.00
11676;BME280;5894;42.768;23.404;2023-03-22T02:32:01;95250.88;;;9.71;100.00
11676;BME280;5894;42.768;23.404;2023-03-22T02:34:54;95251.75;;;9.66;100.00
11676;BME280;5894;42.768;23.404;2023-03-22T02:38:02;95248.69;;;9.64;100.00
11676;BME280;5894;42.768;23.404;2023-03-22T02:40:36;95261.22;;;9.67;100.00
11676;BME280;5894;42.768;23.404;2023-03-22T02:43:12;95245.88;;;9.61;100.00
11676;BME280;5894;42.768;23.404;2023-03-22T02:45:45;95238.84;;;9.56;100.00
11676;BME280;5894;42.768;23.404;2023-03-22T02:48:16;95260.00;;;9.65;100.00
11676;BME280;5894;42.768;23.404;2023-03-22T02:50:49;95262.28;;;9.66;100.00
11676;BME280;5894;42.768;23.404;2023-03-22T02:53:20;95263.69;;;9.64;100.00
11676;BME280;5894;42.768;23.404;2023-03-22T02:55:54;95268.97;;;9.64;100.00
11676;BME280;5894;42.768;23.404;2023-03-22T02:58:25;95241.44;;;9.47;100.00
11676;BME280;5894;42.768;23.404;2023-03-22T03:00:56;95267.22;;;9.59;100.00
11676;BME280;5894;42.768;23.404;2023-03-22T03:03:27;95262.25;;;9.57;100.00
11676;BME280;5894;42.768;23.404;2023-03-22T03:05:58;95259.13;;;9.55;100.00
11676;BME280;5894;42.768;23.404;2023-03-22T03:08:26;95243.31;;;9.47;100.00
11676;BME280;5894;42.768;23.404;2023-03-22T03:10:57;95249.72;;;9.54;100.00
11676;BME280;5894;42.768;23.404;2023-03-22T03:13:24;95266.16;;;9.60;100.00
11676;BME280;5894;42.768;23.404;2023-03-22T03:15:53;95154.88;;;8.84;100.00
11676;BME280;5894;42.768;23.404;2023-03-22T03:18:30;95263.22;;;9.62;100.00
11676;BME280;5894;42.768;23.404;2023-03-22T03:21:07;95268.44;;;9.53;100.00
11676;BME280;5894;42.768;23.404;2023-03-22T03:23:46;95265.03;;;9.52;100.00
11676;BME280;5894;42.768;23.404;2023-03-22T03:26:21;95274.28;;;9.50;100.00
11676;BME280;5894;42.768;23.404;2023-03-22T03:28:54;95257.38;;;9.42;100.00
11676;BME280;5894;42.768;23.404;2023-03-22T03:31:28;95229.88;;;9.26;100.00
11676;BME280;5894;42.768;23.404;2023-03-22T03:34:07;95262.97;;;9.49;100.00
11676;BME280;5894;42.768;23.404;2023-03-22T03:36:39;95227.38;;;9.21;100.00
11676;BME280;5894;42.768;23.404;2023-03-22T03:39:12;95257.97;;;9.39;100.00
11676;BME280;5894;42.768;23.404;2023-03-22T03:41:43;95268.84;;;9.46;100.00
11676;BME280;5894;42.768;23.404;2023-03-22T03:44:12;95275.97;;;9.46;100.00
11676;BME280;5894;42.768;23.404;2023-03-22T03:46:44;95276.44;;;9.48;100.00
11676;BME280;5894;42.768;23.404;2023-03-22T03:49:13;95281.72;;;9.48;100.00
11676;BME280;5894;42.768;23.404;2023-03-22T03:51:46;95284.19;;;9.44;100.00
11676;BME280;5894;42.768;23.404;2023-03-22T03:54:14;95281.22;;;9.46;100.00
11676;BME280;5894;42.768;23.404;2023-03-22T03:56:42;95267.91;;;9.42;100.00
11676;BME280;5894;42.768;23.404;2023-03-22T03:59:09;95240.34;;;9.17;100.00
11676;BME280;5894;42.768;23.404;2023-03-22T04:01:37;95286.19;;;9.47;100.00
11676;BME280;5894;42.768;23.404;2023-03-22T04:04:13;95283.06;;;9.45;100.00
11676;BME280;5894;42.768;23.404;2023-03-22T04:06:53;95287.09;;;9.43;100.00
11676;BME280;5894;42.768;23.404;2023-03-22T04:09:23;95292.53;;;9.46;100.00
11676;BME280;5894;42.768;23.404;2023-03-22T04:11:57;95290.53;;;9.43;100.00
11676;BME280;5894;42.768;23.404;2023-03-22T04:14:24;95295.78;;;9.43;100.00
11676;BME280;5894;42.768;23.404;2023-03-22T04:16:56;95303.19;;;9.41;100.00
11676;BME280;5894;42.768;23.404;2023-03-22T04:19:24;95305.34;;;9.39;100.00
11676;BME280;5894;42.768;23.404;2023-03-22T04:21:51;95299.31;;;9.39;100.00
11676;BME280;5894;42.768;23.404;2023-03-22T04:24:20;95292.63;;;9.33;100.00
11676;BME280;5894;42.768;23.404;2023-03-22T04:26:49;95301.34;;;9.42;100.00
11676;BME280;5894;42.768;23.404;2023-03-22T04:29:41;95296.84;;;9.42;100.00
11676;BME280;5894;42.768;23.404;2023-03-22T04:32:30;95276.38;;;9.17;100.00
11676;BME280;5894;42.768;23.404;2023-03-22T04:34:57;95300.84;;;9.40;100.00
11676;BME280;5894;42.768;23.404;2023-03-22T04:37:24;95262.59;;;9.11;100.00
11676;BME280;5894;42.768;23.404;2023-03-22T04:40:18;95301.81;;;9.44;100.00
11676;BME280;5894;42.768;23.404;2023-03-22T04:43:01;95301.03;;;9.43;100.00
11676;BME280;5894;42.768;23.404;2023-03-22T04:45:53;95303.97;;;9.42;100.00
11676;BME280;5894;42.768;23.404;2023-03-22T04:48:26;95293.41;;;9.33;100.00
11676;BME280;5894;42.768;23.404;2023-03-22T04:50:56;95282.78;;;9.25;100.00
11676;BME280;5894;42.768;23.404;2023-03-22T04:53:29;95311.44;;;9.48;100.00
11676;BME280;5894;42.768;23.404;2023-03-22T04:56:01;95312.41;;;9.52;100.00
11676;BME280;5894;42.768;23.404;2023-03-22T04:58:32;95331.31;;;9.54;100.00
11676;BME280;5894;42.768;23.404;2023-03-22T05:01:01;95311.63;;;9.52;100.00
11676;BME280;5894;42.768;23.404;2023-03-22T05:03:28;95318.78;;;9.60;100.00
11676;BME280;5894;42.768;23.404;2023-03-22T05:05:56;95321.63;;;9.64;100.00
11676;BME280;5894;42.768;23.404;2023-03-22T05:08:33;95327.03;;;9.67;100.00
11676;BME280;5894;42.768;23.404;2023-03-22T05:11:05;95331.38;;;9.63;100.00
11676;BME280;5894;42.768;23.404;2023-03-22T05:13:32;95314.00;;;9.62;100.00
11676;BME280;5894;42.768;23.404;2023-03-22T05:16:00;95331.91;;;9.74;100.00
11676;BME280;5894;42.768;23.404;2023-03-22T05:18:37;95328.00;;;9.71;100.00
11676;BME280;5894;42.768;23.404;2023-03-22T05:21:10;95333.28;;;9.71;100.00
11676;BME280;5894;42.768;23.404;2023-03-22T05:23:38;95302.75;;;9.48;100.00
11676;BME280;5894;42.768;23.404;2023-03-22T05:26:05;95347.50;;;9.70;100.00
11676;BME280;5894;42.768;23.404;2023-03-22T05:28:33;95340.81;;;9.64;100.00
11676;BME280;5894;42.768;23.404;2023-03-22T05:31:10;95352.34;;;9.77;100.00
11676;BME280;5894;42.768;23.404;2023-03-22T05:33:48;95355.94;;;9.81;100.00
11676;BME280;5894;42.768;23.404;2023-03-22T05:36:19;95347.56;;;9.79;100.00
11676;BME280;5894;42.768;23.404;2023-03-22T05:39:08;95356.25;;;9.79;100.00
11676;BME280;5894;42.768;23.404;2023-03-22T05:41:35;95240.88;;;9.06;100.00
11676;BME280;5894;42.768;23.404;2023-03-22T05:44:04;95351.16;;;9.83;100.00
11676;BME280;5894;42.768;23.404;2023-03-22T05:46:33;95339.13;;;9.68;100.00
11676;BME280;5894;42.768;23.404;2023-03-22T05:49:32;95351.47;;;9.81;100.00
11676;BME280;5894;42.768;23.404;2023-03-22T05:52:00;95354.28;;;9.85;100.00
11676;BME280;5894;42.768;23.404;2023-03-22T05:54:41;95356.91;;;9.85;100.00
11676;BME280;5894;42.768;23.404;2023-03-22T05:57:08;95358.63;;;9.89;100.00
11676;BME280;5894;42.768;23.404;2023-03-22T05:59:35;95362.47;;;9.83;100.00
11676;BME280;5894;42.768;23.404;2023-03-22T06:02:05;95358.63;;;9.89;100.00
11676;BME280;5894;42.768;23.404;2023-03-22T06:04:32;95332.31;;;9.67;100.00
11676;BME280;5894;42.768;23.404;2023-03-22T06:07:03;95372.38;;;9.86;100.00
11676;BME280;5894;42.768;23.404;2023-03-22T06:09:41;95361.69;;;9.83;100.00
11676;BME280;5894;42.768;23.404;2023-03-22T06:12:14;95376.94;;;9.94;100.00
11676;BME280;5894;42.768;23.404;2023-03-22T06:14:44;95369.97;;;9.99;100.00
11676;BME280;5894;42.768;23.404;2023-03-22T06:17:32;95344.63;;;9.80;100.00
11676;BME280;5894;42.768;23.404;2023-03-22T06:19:59;95372.91;;;9.97;100.00
11676;BME280;5894;42.768;23.404;2023-03-22T06:22:25;95274.19;;;9.33;100.00
11676;BME280;5894;42.768;23.404;2023-03-22T06:24:55;95384.31;;;10.06;100.00
11676;BME280;5894;42.768;23.404;2023-03-22T06:27:31;95385.25;;;10.10;100.00
11676;BME280;5894;42.768;23.404;2023-03-22T06:29:58;95380.75;;;10.11;100.00
11676;BME280;5894;42.768;23.404;2023-03-22T06:32:25;95261.81;;;9.33;100.00
11676;BME280;5894;42.768;23.404;2023-03-22T06:34:55;95379.56;;;10.17;100.00
11676;BME280;5894;42.768;23.404;2023-03-22T06:37:24;95377.41;;;10.19;100.00
11676;BME280;5894;42.768;23.404;2023-03-22T06:39:52;95389.53;;;10.28;100.00
11676;BME280;5894;42.768;23.404;2023-03-22T06:42:22;95389.72;;;10.32;100.00
11676;BME280;5894;42.768;23.404;2023-03-22T06:45:00;95393.47;;;10.40;100.00
11676;BME280;5894;42.768;23.404;2023-03-22T06:47:30;95394.13;;;10.45;100.00
11676;BME280;5894;42.768;23.404;2023-03-22T06:50:12;95402.03;;;10.45;100.00
11676;BME280;5894;42.768;23.404;2023-03-22T06:53:09;95405.66;;;10.58;100.00
11676;BME280;5894;42.768;23.404;2023-03-22T06:55:37;95405.66;;;10.58;100.00
11676;BME280;5894;42.768;23.404;2023-03-22T06:58:16;95408.75;;;10.60;100.00
11676;BME280;5894;42.768;23.404;2023-03-22T07:00:43;95407.38;;;10.62;100.00
11676;BME280;5894;42.768;23.404;2023-03-22T07:03:11;95401.81;;;10.64;100.00
11676;BME280;5894;42.768;23.404;2023-03-22T07:05:50;95412.22;;;10.69;100.00
11676;BME280;5894;42.768;23.404;2023-03-22T07:08:18;95414.53;;;10.71;100.00
11676;BME280;5894;42.768;23.404;2023-03-22T07:10:49;95421.84;;;10.74;100.00
11676;BME280;5894;42.768;23.404;2023-03-22T07:13:19;95403.66;;;10.63;100.00
11676;BME280;5894;42.768;23.404;2023-03-22T07:15:47;95429.75;;;10.74;100.00
11676;BME280;5894;42.768;23.404;2023-03-22T07:18:31;95418.72;;;10.72;100.00
11676;BME280;5894;42.768;23.404;2023-03-22T07:21:00;95422.44;;;10.71;100.00
11676;BME280;5894;42.768;23.404;2023-03-22T07:23:27;95422.31;;;10.67;100.00
11676;BME280;5894;42.768;23.404;2023-03-22T07:25:59;95420.25;;;10.64;100.00
11676;BME280;5894;42.768;23.404;2023-03-22T07:28:30;95427.28;;;10.69;100.00
11676;BME280;5894;42.768;23.404;2023-03-22T07:30:59;95431.91;;;10.72;100.00
11676;BME280;5894;42.768;23.404;2023-03-22T07:33:29;95438.44;;;10.74;100.00
11676;BME280;5894;42.768;23.404;2023-03-22T07:35:56;95346.97;;;10.13;100.00
11676;BME280;5894;42.768;23.404;2023-03-22T07:38:24;95448.41;;;10.77;100.00
11676;BME280;5894;42.768;23.404;2023-03-22T07:40:52;95430.06;;;10.72;100.00
11676;BME280;5894;42.768;23.404;2023-03-22T07:43:22;95420.75;;;10.66;100.00
11676;BME280;5894;42.768;23.404;2023-03-22T07:45:55;95449.50;;;10.85;100.00
11676;BME280;5894;42.768;23.404;2023-03-22T07:48:41;95451.06;;;10.86;100.00
11676;BME280;5894;42.768;23.404;2023-03-22T07:51:30;95454.78;;;10.85;100.00
11676;BME280;5894;42.768;23.404;2023-03-22T07:53:59;95453.22;;;10.84;100.00
11676;BME280;5894;42.768;23.404;2023-03-22T07:56:26;95451.66;;;10.83;100.00
11676;BME280;5894;42.768;23.404;2023-03-22T07:58:53;95457.53;;;10.80;100.00
11676;BME280;5894;42.768;23.404;2023-03-22T08:01:20;95453.84;;;10.81;100.00
11676;BME280;5894;42.768;23.404;2023-03-22T08:04:04;95463.31;;;10.82;100.00
11676;BME280;5894;42.768;23.404;2023-03-22T08:06:40;95462.22;;;10.83;100.00
11676;BME280;5894;42.768;23.404;2023-03-22T08:09:10;95465.03;;;10.86;100.00
11676;BME280;5894;42.768;23.404;2023-03-22T08:11:37;95466.28;;;10.89;100.00
11676;BME280;5894;42.768;23.404;2023-03-22T08:14:04;95444.81;;;10.73;100.00
11676;BME280;5894;42.768;23.404;2023-03-22T08:16:34;95453.22;;;10.84;100.00
11676;BME280;5894;42.768;23.404;2023-03-22T08:19:03;95456.03;;;10.87;100.00
11676;BME280;5894;42.768;23.404;2023-03-22T08:21:34;95450.59;;;10.84;100.00
11676;BME280;5894;42.768;23.404;2023-03-22T08:24:01;95461.97;;;11.01;100.00
11676;BME280;5894;42.768;23.404;2023-03-22T08:26:29;95461.38;;;11.04;100.00
11676;BME280;5894;42.768;23.404;2023-03-22T08:29:07;95470.72;;;11.11;100.00
11676;BME280;5894;42.768;23.404;2023-03-22T08:31:35;95448.44;;;10.86;100.00
11676;BME280;5894;42.768;23.404;2023-03-22T08:34:02;95458.41;;;10.97;100.00
11676;BME280;5894;42.768;23.404;2023-03-22T08:36:29;95480.81;;;11.17;100.00
11676;BME280;5894;42.768;23.404;2023-03-22T08:39:00;95275.25;;;9.85;100.00
11676;BME280;5894;42.768;23.404;2023-03-22T08:41:49;95481.13;;;11.16;100.00
11676;BME280;5894;42.768;23.404;2023-03-22T08:44:17;95480.34;;;11.15;100.00
11676;BME280;5894;42.768;23.404;2023-03-22T08:46:43;95487.03;;;11.21;100.00
11676;BME280;5894;42.768;23.404;2023-03-22T08:49:10;95488.59;;;11.22;100.00
11676;BME280;5894;42.768;23.404;2023-03-22T08:51:41;95487.81;;;11.22;100.00
11676;BME280;5894;42.768;23.404;2023-03-22T08:54:16;95481.13;;;11.24;100.00
11676;BME280;5894;42.768;23.404;2023-03-22T08:56:53;95422.97;;;10.81;100.00
11676;BME280;5894;42.768;23.404;2023-03-22T08:59:37;95483.34;;;11.31;100.00
11676;BME280;5894;42.768;23.404;2023-03-22T09:02:22;95490.81;;;11.37;100.00
11676;BME280;5894;42.768;23.404;2023-03-22T09:04:51;95484.16;;;11.40;100.00
11676;BME280;5894;42.768;23.404;2023-03-22T09:07:18;95491.44;;;11.43;100.00
11676;BME280;5894;42.768;23.404;2023-03-22T09:09:54;95496.09;;;11.46;100.00
11676;BME280;5894;42.768;23.404;2023-03-22T09:12:22;95493.34;;;11.51;100.00
11676;BME280;5894;42.768;23.404;2023-03-22T09:14:49;95499.38;;;11.52;100.00
11676;BME280;5894;42.768;23.404;2023-03-22T09:17:17;95501.56;;;11.58;100.00
11676;BME280;5894;42.768;23.404;2023-03-22T09:19:44;95496.41;;;11.53;100.00
11676;BME280;5894;42.768;23.404;2023-03-22T09:22:12;95423.53;;;11.09;100.00
11676;BME280;5894;42.768;23.404;2023-03-22T09:24:45;95506.06;;;11.58;100.00
11676;BME280;5894;42.768;23.404;2023-03-22T09:27:12;95509.03;;;11.65;100.00
11676;BME280;5894;42.768;23.404;2023-03-22T09:29:40;95517.13;;;11.60;100.00
11676;BME280;5894;42.768;23.404;2023-03-22T09:32:14;95493.94;;;11.57;100.00
11676;BME280;5894;42.768;23.404;2023-03-22T09:34:44;95495.50;;;11.58;100.00
11676;BME280;5894;42.768;23.404;2023-03-22T09:37:12;95507.63;;;11.67;100.00
11676;BME280;5894;42.768;23.404;2023-03-22T09:39:47;95507.03;;;11.70;100.00
11676;BME280;5894;42.768;23.404;2023-03-22T09:42:23;95497.53;;;11.69;100.00
11676;BME280;5894;42.768;23.404;2023-03-22T09:44:55;95506.91;;;11.75;100.00
11676;BME280;5894;42.768;23.404;2023-03-22T09:47:30;95489.78;;;11.73;100.00
11676;BME280;5894;42.768;23.404;2023-03-22T09:50:04;95507.84;;;11.80;100.00
11676;BME280;5894;42.768;23.404;2023-03-22T09:52:32;95511.25;;;11.80;100.00
11676;BME280;5894;42.768;23.404;2023-03-22T09:54:59;95500.69;;;11.80;100.00
11676;BME280;5894;42.768;23.404;2023-03-22T09:57:28;95507.22;;;11.83;100.00
11676;BME280;5894;42.768;23.404;2023-03-22T10:00:05;95501.78;;;11.79;100.00
11676;BME280;5894;42.768;23.404;2023-03-22T10:02:47;95414.25;;;11.29;100.00
11676;BME280;5894;42.768;23.404;2023-03-22T10:05:21;95509.22;;;11.94;100.00
11676;BME280;5894;42.768;23.404;2023-03-22T10:08:08;95457.44;;;11.67;100.00
11676;BME280;5894;42.768;23.404;2023-03-22T10:10:39;95488.25;;;11.89;100.00
11676;BME280;5894;42.768;23.404;2023-03-22T10:13:15;95522.94;;;12.13;100.00
11676;BME280;5894;42.768;23.404;2023-03-22T10:15:47;95518.25;;;12.19;100.00
11676;BME280;5894;42.768;23.404;2023-03-22T10:18:18;95512.03;;;12.15;100.00
11676;BME280;5894;42.768;23.404;2023-03-22T10:20:48;95530.69;;;12.27;100.00
11676;BME280;5894;42.768;23.404;2023-03-22T10:23:22;95460.91;;;11.85;100.00
11676;BME280;5894;42.768;23.404;2023-03-22T10:25:51;95529.16;;;12.35;100.00
11676;BME280;5894;42.768;23.404;2023-03-22T10:28:20;95514.81;;;12.27;100.00
11676;BME280;5894;42.768;23.404;2023-03-22T10:30:53;95528.19;;;12.39;100.00
11676;BME280;5894;42.768;23.404;2023-03-22T10:33:34;95526.63;;;12.38;100.00
11676;BME280;5894;42.768;23.404;2023-03-22T10:36:05;95512.50;;;12.34;100.00
11676;BME280;5894;42.768;23.404;2023-03-22T10:38:41;95524.94;;;12.42;100.00
11676;BME280;5894;42.768;23.404;2023-03-22T10:41:12;95523.97;;;12.47;100.00
11676;BME280;5894;42.768;23.404;2023-03-22T10:43:43;95519.63;;;12.51;100.00
11676;BME280;5894;42.768;23.404;2023-03-22T10:46:15;95514.50;;;12.55;100.00
11676;BME280;5894;42.768;23.404;2023-03-22T10:48:45;95519.78;;;12.55;100.00
11676;BME280;5894;42.768;23.404;2023-03-22T10:51:20;95517.00;;;12.51;100.00
11676;BME280;5894;42.768;23.404;2023-03-22T10:53:50;95517.94;;;12.55;100.00
11676;BME280;5894;42.768;23.404;2023-03-22T10:56:20;95519.16;;;12.58;100.00
11676;BME280;5894;42.768;23.404;2023-03-22T10:58:48;95447.69;;;12.02;100.00
11676;BME280;5894;42.768;23.404;2023-03-22T11:01:25;95521.34;;;12.56;100.00
11676;BME280;5894;42.768;23.404;2023-03-22T11:03:56;95522.44;;;12.55;100.00
11676;BME280;5894;42.768;23.404;2023-03-22T11:06:24;95516.06;;;12.56;100.00
11676;BME280;5894;42.768;23.404;2023-03-22T11:08:57;95493.50;;;12.41;100.00
11676;BME280;5894;42.768;23.404;2023-03-22T11:11:26;95518.25;;;12.45;100.00
11676;BME280;5894;42.768;23.404;2023-03-22T11:13:58;95526.63;;;12.47;100.00
11676;BME280;5894;42.768;23.404;2023-03-22T11:16:28;95516.38;;;12.45;100.00
11676;BME280;5894;42.768;23.404;2023-03-22T11:18:56;95509.69;;;12.39;100.00
11676;BME280;5894;42.768;23.404;2023-03-22T11:21:29;95512.34;;;12.39;100.00
11676;BME280;5894;42.768;23.404;2023-03-22T11:24:00;95508.59;;;12.40;100.00
11676;BME280;5894;42.768;23.404;2023-03-22T11:26:31;95519.19;;;12.32;100.00
11676;BME280;5894;42.768;23.404;2023-03-22T11:29:06;95510.19;;;12.33;100.00
11676;BME280;5894;42.768;23.404;2023-03-22T11:31:54;95507.22;;;12.26;100.00
11676;BME280;5894;42.768;23.404;2023-03-22T11:34:23;95510.31;;;12.28;100.00
11676;BME280;5894;42.768;23.404;2023-03-22T11:36:50;95496.50;;;12.22;100.00
11676;BME280;5894;42.768;23.404;2023-03-22T11:39:23;95458.41;;;11.97;100.00
11676;BME280;5894;42.768;23.404;2023-03-22T11:41:51;95495.22;;;12.28;100.00
11676;BME280;5894;42.768;23.404;2023-03-22T11:44:21;95502.69;;;12.26;100.00
11676;BME280;5894;42.768;23.404;2023-03-22T11:46:51;95467.13;;;11.98;100.00
11676;BME280;5894;42.768;23.404;2023-03-22T11:49:22;95507.06;;;12.22;100.00
11676;BME280;5894;42.768;23.404;2023-03-22T11:51:52;95498.19;;;12.18;100.00
11676;BME280;5894;42.768;23.404;2023-03-22T11:54:26;95493.06;;;12.22;100.00
11676;BME280;5894;42.768;23.404;2023-03-22T11:56:57;95485.59;;;12.15;100.00
11676;BME280;5894;42.768;23.404;2023-03-22T11:59:27;95452.97;;;12.02;100.00
11676;BME280;5894;42.768;23.404;2023-03-22T12:01:59;95478.72;;;12.40;100.00
11676;BME280;5894;42.768;23.404;2023-03-22T12:04:33;95455.09;;;12.26;100.00
11676;BME280;5894;42.768;23.404;2023-03-22T12:07:08;95501.56;;;12.62;100.00
11676;BME280;5894;42.768;23.404;2023-03-22T12:09:39;95501.38;;;12.67;100.00
11676;BME280;5894;42.768;23.404;2023-03-22T12:12:11;95507.09;;;12.77;100.00
11676;BME280;5894;42.768;23.404;2023-03-22T12:14:47;95503.06;;;12.80;100.00
11676;BME280;5894;42.768;23.404;2023-03-22T12:17:24;95503.22;;;12.83;100.00
11676;BME280;5894;42.768;23.404;2023-03-22T12:20:03;95496.34;;;12.91;100.00
11676;BME280;5894;42.768;23.404;2023-03-22T12:22:34;95501.59;;;13.00;100.00
11676;BME280;5894;42.768;23.404;2023-03-22T12:25:01;95490.22;;;13.08;100.00
11676;BME280;5894;42.768;23.404;2023-03-22T12:27:32;95498.91;;;13.08;100.00
11676;BME280;5894;42.768;23.404;2023-03-22T12:30:02;95498.75;;;13.13;100.00
11676;BME280;5894;42.768;23.404;2023-03-22T12:32:34;95494.06;;;13.10;100.00
11676;BME280;5894;42.768;23.404;2023-03-22T12:35:06;95495.53;;;12.99;100.00
11676;BME280;5894;42.768;23.404;2023-03-22T12:37:38;95500.47;;;13.09;100.00
11676;BME280;5894;42.768;23.404;2023-03-22T12:40:16;95496.09;;;13.13;100.00
11676;BME280;5894;42.768;23.404;2023-03-22T12:42:49;95489.44;;;13.07;100.00
11676;BME280;5894;42.768;23.404;2023-03-22T12:45:20;95501.47;;;12.96;100.00
11676;BME280;5894;42.768;23.404;2023-03-22T12:47:50;95497.38;;;12.99;100.00
11676;BME280;5894;42.768;23.404;2023-03-22T12:50:23;95503.31;;;13.04;100.00
11676;BME280;5894;42.768;23.404;2023-03-22T12:52:52;95502.88;;;12.94;100.00
11676;BME280;5894;42.768;23.404;2023-03-22T12:55:23;95486.25;;;12.84;100.00
11676;BME280;5894;42.768;23.404;2023-03-22T12:57:51;95487.31;;;12.92;100.00
11676;BME280;5894;42.768;23.404;2023-03-22T13:00:20;95496.19;;;12.96;100.00
11676;BME280;5894;42.768;23.404;2023-03-22T13:02:56;95497.44;;;12.90;100.00
11676;BME280;5894;42.768;23.404;2023-03-22T13:05:28;95497.59;;;12.85;100.00
11676;BME280;5894;42.768;23.404;2023-03-22T13:07:55;95494.97;;;12.85;100.00
11676;BME280;5894;42.768;23.404;2023-03-22T13:13:45;95493.44;;;12.75;100.00
11676;BME280;5894;42.768;23.404;2023-03-22T13:16:18;95489.09;;;12.71;100.00
11676;BME280;5894;42.768;23.404;2023-03-22T13:18:59;95505.28;;;12.69;100.00
11676;BME280;5894;42.768;23.404;2023-03-22T13:21:31;95474.41;;;12.35;100.00
11676;BME280;5894;42.768;23.404;2023-03-22T13:24:18;95473.78;;;12.21;100.00
11676;BME280;5894;42.768;23.404;2023-03-22T13:26:47;95488.84;;;12.29;100.00